sensor_id;sensor_type;location;lat;lon;timestamp;temperature;humidity
4759;DHT22;2393;50.560;12.636;2023-10-31T00:01:30;13.30;99.90
4759;DHT22;2393;50.560;12.636;2023-10-31T00:03:59;13.30;99.90
4759;DHT22;2393;50.560;12.636;2023-10-31T00:06:27;13.30;99.90
4759;DHT22;2393;50.560;12.636;2023-10-31T00:08:55;13.20;99.90
4759;DHT22;2393;50.560;12.636;2023-10-31T00:11:23;13.20;99.90
4759;DHT22;2393;50.560;12.636;2023-10-31T00:13:51;13.20;99.90
4759;DHT22;2393;50.560;12.636;2023-10-31T00:16:19;13.20;99.90
4759;DHT22;2393;50.560;12.636;2023-10-31T00:18:49;13.20;99.90
4759;DHT22;2393;50.560;12.636;2023-10-31T00:21:18;13.20;99.90
4759;DHT22;2393;50.560;12.636;2023-10-31T00:23:47;13.10;99.90
4759;DHT22;2393;50.560;12.636;2023-10-31T00:26:16;13.10;99.90
4759;DHT22;2393;50.560;12.636;2023-10-31T00:28:51;13.10;99.90
4759;DHT22;2393;50.560;12.636;2023-10-31T00:31:19;13.10;99.90
4759;DHT22;2393;50.560;12.636;2023-10-31T00:33:49;13.10;99.90
4759;DHT22;2393;50.560;12.636;2023-10-31T00:36:17;13.00;99.90
4759;DHT22;2393;50.560;12.636;2023-10-31T00:38:45;13.00;99.90
4759;DHT22;2393;50.560;12.636;2023-10-31T00:41:13;13.00;99.90
4759;DHT22;2393;50.560;12.636;2023-10-31T00:43:41;13.00;99.90
4759;DHT22;2393;50.560;12.636;2023-10-31T00:46:09;13.00;99.90
4759;DHT22;2393;50.560;12.636;2023-10-31T00:48:38;12.90;99.90
4759;DHT22;2393;50.560;12.636;2023-10-31T00:51:08;12.90;99.90
4759;DHT22;2393;50.560;12.636;2023-10-31T00:53:36;12.90;99.90
4759;DHT22;2393;50.560;12.636;2023-10-31T00:56:05;12.90;99.90
4759;DHT22;2393;50.560;12.636;2023-10-31T00:58:34;12.90;99.90
4759;DHT22;2393;50.560;12.636;2023-10-31T01:01:02;12.80;99.90
4759;DHT22;2393;50.560;12.636;2023-10-31T01:03:31;12.80;99.90
4759;DHT22;2393;50.560;12.636;2023-10-31T01:05:59;12.80;99.90
4759;DHT22;2393;50.560;12.636;2023-10-31T01:08:29;12.80;99.90
4759;DHT22;2393;50.560;12.636;2023-10-31T01:10:57;12.80;99.90
4759;DHT22;2393;50.560;12.636;2023-10-31T01:13:25;12.80;99.90
4759;DHT22;2393;50.560;12.636;2023-10-31T01:15:54;12.80;99.90
4759;DHT22;2393;50.560;12.636;2023-10-31T01:18:22;12.80;99.90
4759;DHT22;2393;50.560;12.636;2023-10-31T01:20:50;12.80;99.90
4759;DHT22;2393;50.560;12.636;2023-10-31T01:23:18;12.70;99.90
4759;DHT22;2393;50.560;12.636;2023-10-31T01:25:48;12.70;99.90
4759;DHT22;2393;50.560;12.636;2023-10-31T01:28:16;12.60;99.90
4759;DHT22;2393;50.560;12.636;2023-10-31T01:30:44;12.60;99.90
4759;DHT22;2393;50.560;12.636;2023-10-31T01:33:12;12.50;99.90
4759;DHT22;2393;50.560;12.636;2023-10-31T01:35:41;12.50;99.90
4759;DHT22;2393;50.560;12.636;2023-10-31T01:38:09;12.50;99.90
4759;DHT22;2393;50.560;12.636;2023-10-31T01:40:37;12.50;99.90
4759;DHT22;2393;50.560;12.636;2023-10-31T01:43:07;12.50;99.90
4759;DHT22;2393;50.560;12.636;2023-10-31T01:45:35;12.50;99.90
4759;DHT22;2393;50.560;12.636;2023-10-31T01:48:04;12.50;99.90
4759;DHT22;2393;50.560;12.636;2023-10-31T01:50:32;12.50;99.90
4759;DHT22;2393;50.560;12.636;2023-10-31T01:53:00;12.50;99.90
4759;DHT22;2393;50.560;12.636;2023-10-31T01:55:28;12.40;99.90
4759;DHT22;2393;50.560;12.636;2023-10-31T01:57:57;12.40;99.90
4759;DHT22;2393;50.560;12.636;2023-10-31T02:00:26;12.40;99.90
4759;DHT22;2393;50.560;12.636;2023-10-31T02:02:54;12.40;99.90
4759;DHT22;2393;50.560;12.636;2023-10-31T02:05:23;12.40;99.90
4759;DHT22;2393;50.560;12.636;2023-10-31T02:07:54;12.40;99.90
4759;DHT22;2393;50.560;12.636;2023-10-31T02:10:22;12.40;99.90
4759;DHT22;2393;50.560;12.636;2023-10-31T02:12:51;12.40;99.90
4759;DHT22;2393;50.560;12.636;2023-10-31T02:15:19;12.40;99.90
4759;DHT22;2393;50.560;12.636;2023-10-31T02:17:50;12.40;99.90
4759;DHT22;2393;50.560;12.636;2023-10-31T02:20:19;12.40;99.90
4759;DHT22;2393;50.560;12.636;2023-10-31T02:22:48;12.40;99.90
4759;DHT22;2393;50.560;12.636;2023-10-31T02:25:17;12.40;99.90
4759;DHT22;2393;50.560;12.636;2023-10-31T02:27:45;12.40;99.90
4759;DHT22;2393;50.560;12.636;2023-10-31T02:30:13;12.40;99.90
4759;DHT22;2393;50.560;12.636;2023-10-31T02:32:42;12.40;99.90
4759;DHT22;2393;50.560;12.636;2023-10-31T02:35:10;12.40;99.90
4759;DHT22;2393;50.560;12.636;2023-10-31T02:37:38;12.40;99.90
4759;DHT22;2393;50.560;12.636;2023-10-31T02:40:09;12.40;99.90
4759;DHT22;2393;50.560;12.636;2023-10-31T02:42:39;12.40;99.90
4759;DHT22;2393;50.560;12.636;2023-10-31T02:45:08;12.40;99.90
4759;DHT22;2393;50.560;12.636;2023-10-31T02:47:36;12.40;99.90
4759;DHT22;2393;50.560;12.636;2023-10-31T02:50:06;12.40;99.90
4759;DHT22;2393;50.560;12.636;2023-10-31T02:52:34;12.40;99.90
4759;DHT22;2393;50.560;12.636;2023-10-31T02:55:09;12.40;99.90
4759;DHT22;2393;50.560;12.636;2023-10-31T02:57:37;12.40;99.90
4759;DHT22;2393;50.560;12.636;2023-10-31T03:00:07;12.40;99.90
4759;DHT22;2393;50.560;12.636;2023-10-31T03:02:35;12.40;99.90
4759;DHT22;2393;50.560;12.636;2023-10-31T03:05:04;12.40;99.90
4759;DHT22;2393;50.560;12.636;2023-10-31T03:07:34;12.40;99.90
4759;DHT22;2393;50.560;12.636;2023-10-31T03:10:03;12.40;99.90
4759;DHT22;2393;50.560;12.636;2023-10-31T03:12:33;12.40;99.90
4759;DHT22;2393;50.560;12.636;2023-10-31T03:15:01;12.40;99.90
4759;DHT22;2393;50.560;12.636;2023-10-31T03:17:30;12.40;99.90
4759;DHT22;2393;50.560;12.636;2023-10-31T03:19:58;12.30;99.90
4759;DHT22;2393;50.560;12.636;2023-10-31T03:22:26;12.20;99.90
4759;DHT22;2393;50.560;12.636;2023-10-31T03:24:55;12.20;99.90
4759;DHT22;2393;50.560;12.636;2023-10-31T03:27:26;12.20;99.90
4759;DHT22;2393;50.560;12.636;2023-10-31T03:29:55;12.10;99.90
4759;DHT22;2393;50.560;12.636;2023-10-31T03:32:23;12.10;99.90
4759;DHT22;2393;50.560;12.636;2023-10-31T03:34:52;12.00;99.90
4759;DHT22;2393;50.560;12.636;2023-10-31T03:37:20;12.00;99.90
4759;DHT22;2393;50.560;12.636;2023-10-31T03:39:48;12.00;99.90
4759;DHT22;2393;50.560;12.636;2023-10-31T03:42:16;12.00;99.90
4759;DHT22;2393;50.560;12.636;2023-10-31T03:44:44;12.00;99.90
4759;DHT22;2393;50.560;12.636;2023-10-31T03:47:15;12.00;99.90
4759;DHT22;2393;50.560;12.636;2023-10-31T03:49:43;12.00;99.90
4759;DHT22;2393;50.560;12.636;2023-10-31T03:52:11;12.00;99.90
4759;DHT22;2393;50.560;12.636;2023-10-31T03:54:39;12.00;99.90
4759;DHT22;2393;50.560;12.636;2023-10-31T03:57:07;12.00;99.90
4759;DHT22;2393;50.560;12.636;2023-10-31T03:59:37;12.00;99.90
4759;DHT22;2393;50.560;12.636;2023-10-31T04:02:05;12.00;99.90
4759;DHT22;2393;50.560;12.636;2023-10-31T04:04:36;12.00;99.90
4759;DHT22;2393;50.560;12.636;2023-10-31T04:07:04;11.90;99.90
4759;DHT22;2393;50.560;12.636;2023-10-31T04:09:32;11.90;99.90
4759;DHT22;2393;50.560;12.636;2023-10-31T04:12:00;12.00;99.90
4759;DHT22;2393;50.560;12.636;2023-10-31T04:14:28;12.00;99.90
4759;DHT22;2393;50.560;12.636;2023-10-31T04:16:56;11.90;99.90
4759;DHT22;2393;50.560;12.636;2023-10-31T04:19:24;11.90;99.90
4759;DHT22;2393;50.560;12.636;2023-10-31T04:21:54;11.90;99.90
4759;DHT22;2393;50.560;12.636;2023-10-31T04:24:22;11.90;99.90
4759;DHT22;2393;50.560;12.636;2023-10-31T04:26:50;12.00;99.90
4759;DHT22;2393;50.560;12.636;2023-10-31T04:29:18;12.00;99.90
4759;DHT22;2393;50.560;12.636;2023-10-31T04:31:46;12.00;99.90
4759;DHT22;2393;50.560;12.636;2023-10-31T04:34:14;11.90;99.90
4759;DHT22;2393;50.560;12.636;2023-10-31T04:36:43;11.90;99.90
4759;DHT22;2393;50.560;12.636;2023-10-31T04:39:12;11.80;99.90
4759;DHT22;2393;50.560;12.636;2023-10-31T04:41:40;11.80;99.90
4759;DHT22;2393;50.560;12.636;2023-10-31T04:44:27;11.70;99.90
4759;DHT22;2393;50.560;12.636;2023-10-31T04:47:01;11.70;99.90
4759;DHT22;2393;50.560;12.636;2023-10-31T04:49:29;11.60;99.90
4759;DHT22;2393;50.560;12.636;2023-10-31T04:51:57;11.60;99.90
4759;DHT22;2393;50.560;12.636;2023-10-31T04:54:27;11.60;99.90
4759;DHT22;2393;50.560;12.636;2023-10-31T04:56:55;11.60;99.90
4759;DHT22;2393;50.560;12.636;2023-10-31T04:59:23;11.60;99.90
4759;DHT22;2393;50.560;12.636;2023-10-31T05:01:51;11.60;99.90
4759;DHT22;2393;50.560;12.636;2023-10-31T05:04:19;11.60;99.90
4759;DHT22;2393;50.560;12.636;2023-10-31T05:06:48;11.60;99.90
4759;DHT22;2393;50.560;12.636;2023-10-31T05:09:16;11.60;99.90
4759;DHT22;2393;50.560;12.636;2023-10-31T05:11:46;11.50;99.90
4759;DHT22;2393;50.560;12.636;2023-10-31T05:14:14;11.50;99.90
4759;DHT22;2393;50.560;12.636;2023-10-31T05:16:43;11.50;99.90
4759;DHT22;2393;50.560;12.636;2023-10-31T05:19:11;11.50;99.90
4759;DHT22;2393;50.560;12.636;2023-10-31T05:21:39;11.40;99.90
4759;DHT22;2393;50.560;12.636;2023-10-31T05:24:07;11.40;99.90
4759;DHT22;2393;50.560;12.636;2023-10-31T05:26:36;11.30;99.90
4759;DHT22;2393;50.560;12.636;2023-10-31T05:29:06;11.30;99.90
4759;DHT22;2393;50.560;12.636;2023-10-31T05:31:36;11.30;99.90
4759;DHT22;2393;50.560;12.636;2023-10-31T05:34:04;11.30;99.90
4759;DHT22;2393;50.560;12.636;2023-10-31T05:36:33;11.30;99.90
4759;DHT22;2393;50.560;12.636;2023-10-31T05:39:01;11.30;99.90
4759;DHT22;2393;50.560;12.636;2023-10-31T05:41:29;11.20;99.90
4759;DHT22;2393;50.560;12.636;2023-10-31T05:43:58;11.20;99.90
4759;DHT22;2393;50.560;12.636;2023-10-31T05:46:27;11.20;99.90
4759;DHT22;2393;50.560;12.636;2023-10-31T05:48:56;11.20;99.90
4759;DHT22;2393;50.560;12.636;2023-10-31T05:51:24;11.30;99.90
4759;DHT22;2393;50.560;12.636;2023-10-31T05:53:53;11.30;99.90
4759;DHT22;2393;50.560;12.636;2023-10-31T05:56:21;11.30;99.90
4759;DHT22;2393;50.560;12.636;2023-10-31T05:58:49;11.30;99.90
4759;DHT22;2393;50.560;12.636;2023-10-31T06:01:17;11.30;99.90
4759;DHT22;2393;50.560;12.636;2023-10-31T06:03:47;11.20;99.90
4759;DHT22;2393;50.560;12.636;2023-10-31T06:06:15;11.20;99.90
4759;DHT22;2393;50.560;12.636;2023-10-31T06:08:43;11.20;99.90
4759;DHT22;2393;50.560;12.636;2023-10-31T06:11:12;11.10;99.90
4759;DHT22;2393;50.560;12.636;2023-10-31T06:13:40;11.10;99.90
4759;DHT22;2393;50.560;12.636;2023-10-31T06:16:08;11.10;99.90
4759;DHT22;2393;50.560;12.636;2023-10-31T06:18:38;11.10;99.90
4759;DHT22;2393;50.560;12.636;2023-10-31T06:21:09;11.10;99.90
4759;DHT22;2393;50.560;12.636;2023-10-31T06:23:37;11.00;99.90
4759;DHT22;2393;50.560;12.636;2023-10-31T06:26:05;11.00;99.90
4759;DHT22;2393;50.560;12.636;2023-10-31T06:28:34;11.00;99.90
4759;DHT22;2393;50.560;12.636;2023-10-31T06:31:11;11.00;99.90
4759;DHT22;2393;50.560;12.636;2023-10-31T06:33:40;10.90;99.90
4759;DHT22;2393;50.560;12.636;2023-10-31T06:36:09;10.90;99.90
4759;DHT22;2393;50.560;12.636;2023-10-31T06:38:37;10.90;99.90
4759;DHT22;2393;50.560;12.636;2023-10-31T06:41:06;10.90;99.90
4759;DHT22;2393;50.560;12.636;2023-10-31T06:43:34;10.90;99.90
4759;DHT22;2393;50.560;12.636;2023-10-31T06:46:04;10.80;99.90
4759;DHT22;2393;50.560;12.636;2023-10-31T06:48:32;10.80;99.90
4759;DHT22;2393;50.560;12.636;2023-10-31T06:51:00;10.80;99.90
4759;DHT22;2393;50.560;12.636;2023-10-31T06:53:30;10.80;99.90
4759;DHT22;2393;50.560;12.636;2023-10-31T06:55:58;10.80;99.90
4759;DHT22;2393;50.560;12.636;2023-10-31T06:58:26;10.90;99.90
4759;DHT22;2393;50.560;12.636;2023-10-31T07:00:54;10.80;99.90
4759;DHT22;2393;50.560;12.636;2023-10-31T07:03:25;10.80;99.90
4759;DHT22;2393;50.560;12.636;2023-10-31T07:05:54;10.80;99.90
4759;DHT22;2393;50.560;12.636;2023-10-31T07:08:23;10.80;99.90
4759;DHT22;2393;50.560;12.636;2023-10-31T07:10:52;10.80;99.90
4759;DHT22;2393;50.560;12.636;2023-10-31T07:13:21;10.70;99.90
4759;DHT22;2393;50.560;12.636;2023-10-31T07:15:49;10.70;99.90
4759;DHT22;2393;50.560;12.636;2023-10-31T07:18:17;10.70;99.90
4759;DHT22;2393;50.560;12.636;2023-10-31T07:20:45;10.70;99.90
4759;DHT22;2393;50.560;12.636;2023-10-31T07:23:13;10.70;99.90
4759;DHT22;2393;50.560;12.636;2023-10-31T07:25:40;10.70;99.90
4759;DHT22;2393;50.560;12.636;2023-10-31T07:28:10;10.70;99.90
4759;DHT22;2393;50.560;12.636;2023-10-31T07:30:38;10.70;99.90
4759;DHT22;2393;50.560;12.636;2023-10-31T07:33:07;10.70;99.90
4759;DHT22;2393;50.560;12.636;2023-10-31T07:35:35;10.70;99.90
4759;DHT22;2393;50.560;12.636;2023-10-31T07:38:04;10.70;99.90
4759;DHT22;2393;50.560;12.636;2023-10-31T07:40:32;10.80;99.90
4759;DHT22;2393;50.560;12.636;2023-10-31T07:43:00;10.80;99.90
4759;DHT22;2393;50.560;12.636;2023-10-31T07:45:30;10.70;99.90
4759;DHT22;2393;50.560;12.636;2023-10-31T07:47:58;10.70;99.90
4759;DHT22;2393;50.560;12.636;2023-10-31T07:50:26;10.70;99.90
4759;DHT22;2393;50.560;12.636;2023-10-31T07:52:54;10.80;99.90
4759;DHT22;2393;50.560;12.636;2023-10-31T07:55:22;10.80;99.90
4759;DHT22;2393;50.560;12.636;2023-10-31T07:57:51;10.90;99.90
4759;DHT22;2393;50.560;12.636;2023-10-31T08:00:21;10.90;99.90
4759;DHT22;2393;50.560;12.636;2023-10-31T08:02:51;10.90;99.90
4759;DHT22;2393;50.560;12.636;2023-10-31T08:05:23;10.90;99.90
4759;DHT22;2393;50.560;12.636;2023-10-31T08:07:51;11.00;99.90
4759;DHT22;2393;50.560;12.636;2023-10-31T08:10:19;10.90;99.90
4759;DHT22;2393;50.560;12.636;2023-10-31T08:12:47;10.90;99.90
4759;DHT22;2393;50.560;12.636;2023-10-31T08:15:16;11.00;99.90
4759;DHT22;2393;50.560;12.636;2023-10-31T08:17:44;11.00;99.90
4759;DHT22;2393;50.560;12.636;2023-10-31T08:20:14;10.90;99.90
4759;DHT22;2393;50.560;12.636;2023-10-31T08:22:42;11.00;99.90
4759;DHT22;2393;50.560;12.636;2023-10-31T08:25:10;11.00;99.90
4759;DHT22;2393;50.560;12.636;2023-10-31T08:27:39;11.00;99.90
4759;DHT22;2393;50.560;12.636;2023-10-31T08:30:08;11.10;99.90
4759;DHT22;2393;50.560;12.636;2023-10-31T08:32:36;11.10;99.90
4759;DHT22;2393;50.560;12.636;2023-10-31T08:35:06;11.30;99.90
4759;DHT22;2393;50.560;12.636;2023-10-31T08:37:36;11.40;99.90
4759;DHT22;2393;50.560;12.636;2023-10-31T08:40:05;11.30;99.90
4759;DHT22;2393;50.560;12.636;2023-10-31T08:42:34;11.40;99.90
4759;DHT22;2393;50.560;12.636;2023-10-31T08:45:02;11.40;99.90
4759;DHT22;2393;50.560;12.636;2023-10-31T08:47:30;11.40;99.90
4759;DHT22;2393;50.560;12.636;2023-10-31T08:49:58;11.40;99.90
4759;DHT22;2393;50.560;12.636;2023-10-31T08:52:27;11.50;99.90
4759;DHT22;2393;50.560;12.636;2023-10-31T08:54:56;11.50;99.90
4759;DHT22;2393;50.560;12.636;2023-10-31T08:57:24;11.50;99.90
4759;DHT22;2393;50.560;12.636;2023-10-31T08:59:52;11.40;99.90
4759;DHT22;2393;50.560;12.636;2023-10-31T09:02:20;11.30;99.90
4759;DHT22;2393;50.560;12.636;2023-10-31T09:04:48;11.30;99.90
4759;DHT22;2393;50.560;12.636;2023-10-31T09:07:17;11.30;99.90
4759;DHT22;2393;50.560;12.636;2023-10-31T09:09:45;11.40;99.90
4759;DHT22;2393;50.560;12.636;2023-10-31T09:12:14;11.50;99.90
4759;DHT22;2393;50.560;12.636;2023-10-31T09:14:42;11.60;99.90
4759;DHT22;2393;50.560;12.636;2023-10-31T09:17:11;11.70;99.90
4759;DHT22;2393;50.560;12.636;2023-10-31T09:19:39;12.10;99.90
4759;DHT22;2393;50.560;12.636;2023-10-31T09:22:08;12.70;99.90
4759;DHT22;2393;50.560;12.636;2023-10-31T09:24:36;13.20;99.90
4759;DHT22;2393;50.560;12.636;2023-10-31T09:27:04;13.70;99.90
4759;DHT22;2393;50.560;12.636;2023-10-31T09:29:34;13.80;99.90
4759;DHT22;2393;50.560;12.636;2023-10-31T09:32:02;13.60;99.90
4759;DHT22;2393;50.560;12.636;2023-10-31T09:34:32;13.40;99.90
4759;DHT22;2393;50.560;12.636;2023-10-31T09:37:00;13.20;99.90
4759;DHT22;2393;50.560;12.636;2023-10-31T09:39:28;12.80;99.90
4759;DHT22;2393;50.560;12.636;2023-10-31T09:41:56;12.50;99.90
4759;DHT22;2393;50.560;12.636;2023-10-31T09:44:24;12.40;99.90
4759;DHT22;2393;50.560;12.636;2023-10-31T09:46:54;12.20;99.90
4759;DHT22;2393;50.560;12.636;2023-10-31T09:49:23;12.00;99.90
4759;DHT22;2393;50.560;12.636;2023-10-31T09:51:51;11.90;99.90
4759;DHT22;2393;50.560;12.636;2023-10-31T09:54:20;11.80;99.90
4759;DHT22;2393;50.560;12.636;2023-10-31T09:56:48;11.70;99.90
4759;DHT22;2393;50.560;12.636;2023-10-31T09:59:17;11.70;99.90
4759;DHT22;2393;50.560;12.636;2023-10-31T10:01:45;11.70;99.90
4759;DHT22;2393;50.560;12.636;2023-10-31T10:04:15;11.80;99.90
4759;DHT22;2393;50.560;12.636;2023-10-31T10:06:51;11.90;99.90
4759;DHT22;2393;50.560;12.636;2023-10-31T10:09:21;12.00;99.90
4759;DHT22;2393;50.560;12.636;2023-10-31T10:11:49;12.30;99.90
4759;DHT22;2393;50.560;12.636;2023-10-31T10:14:23;12.70;99.90
4759;DHT22;2393;50.560;12.636;2023-10-31T10:16:51;13.10;99.90
4759;DHT22;2393;50.560;12.636;2023-10-31T10:19:21;13.20;99.90
4759;DHT22;2393;50.560;12.636;2023-10-31T10:21:51;13.50;99.90
4759;DHT22;2393;50.560;12.636;2023-10-31T10:24:20;13.60;99.90
4759;DHT22;2393;50.560;12.636;2023-10-31T10:26:49;13.50;99.90
4759;DHT22;2393;50.560;12.636;2023-10-31T10:29:18;13.40;99.90
4759;DHT22;2393;50.560;12.636;2023-10-31T10:31:46;13.30;99.90
4759;DHT22;2393;50.560;12.636;2023-10-31T10:34:16;13.20;99.90
4759;DHT22;2393;50.560;12.636;2023-10-31T10:36:48;13.10;99.90
4759;DHT22;2393;50.560;12.636;2023-10-31T10:39:20;12.80;99.90
4759;DHT22;2393;50.560;12.636;2023-10-31T10:41:52;12.70;99.90
4759;DHT22;2393;50.560;12.636;2023-10-31T10:44:30;12.60;99.90
4759;DHT22;2393;50.560;12.636;2023-10-31T10:47:01;12.40;99.90
4759;DHT22;2393;50.560;12.636;2023-10-31T10:49:33;12.40;99.90
4759;DHT22;2393;50.560;12.636;2023-10-31T10:52:17;12.50;99.90
4759;DHT22;2393;50.560;12.636;2023-10-31T10:54:52;12.40;99.90
4759;DHT22;2393;50.560;12.636;2023-10-31T10:57:27;12.50;99.90
4759;DHT22;2393;50.560;12.636;2023-10-31T11:00:03;12.40;99.90
4759;DHT22;2393;50.560;12.636;2023-10-31T11:02:32;12.40;99.90
4759;DHT22;2393;50.560;12.636;2023-10-31T11:05:05;12.50;99.90
4759;DHT22;2393;50.560;12.636;2023-10-31T11:07:37;13.00;99.90
4759;DHT22;2393;50.560;12.636;2023-10-31T11:10:06;13.20;99.90
4759;DHT22;2393;50.560;12.636;2023-10-31T11:12:36;13.30;99.90
4759;DHT22;2393;50.560;12.636;2023-10-31T11:15:06;13.30;99.90
4759;DHT22;2393;50.560;12.636;2023-10-31T11:17:37;13.20;99.90
4759;DHT22;2393;50.560;12.636;2023-10-31T11:20:09;13.10;99.90
4759;DHT22;2393;50.560;12.636;2023-10-31T11:22:40;13.00;99.90
4759;DHT22;2393;50.560;12.636;2023-10-31T11:25:09;13.00;99.90
4759;DHT22;2393;50.560;12.636;2023-10-31T11:27:49;12.90;99.90
4759;DHT22;2393;50.560;12.636;2023-10-31T11:30:22;12.80;99.90
4759;DHT22;2393;50.560;12.636;2023-10-31T11:32:54;12.80;99.90
4759;DHT22;2393;50.560;12.636;2023-10-31T11:35:23;12.70;99.90
4759;DHT22;2393;50.560;12.636;2023-10-31T11:38:01;12.60;99.90
4759;DHT22;2393;50.560;12.636;2023-10-31T11:40:30;12.50;99.90
4759;DHT22;2393;50.560;12.636;2023-10-31T11:43:03;12.40;99.90
4759;DHT22;2393;50.560;12.636;2023-10-31T11:45:34;12.20;99.90
4759;DHT22;2393;50.560;12.636;2023-10-31T11:48:04;12.20;99.90
4759;DHT22;2393;50.560;12.636;2023-10-31T11:50:33;12.10;99.90
4759;DHT22;2393;50.560;12.636;2023-10-31T11:53:04;12.00;99.90
4759;DHT22;2393;50.560;12.636;2023-10-31T11:55:34;11.90;99.90
4759;DHT22;2393;50.560;12.636;2023-10-31T11:58:15;11.80;99.90
4759;DHT22;2393;50.560;12.636;2023-10-31T12:00:44;11.70;99.90
4759;DHT22;2393;50.560;12.636;2023-10-31T12:03:14;11.60;99.90
4759;DHT22;2393;50.560;12.636;2023-10-31T12:05:51;11.60;99.90
4759;DHT22;2393;50.560;12.636;2023-10-31T12:08:29;11.60;99.90
4759;DHT22;2393;50.560;12.636;2023-10-31T12:11:05;11.70;99.90
4759;DHT22;2393;50.560;12.636;2023-10-31T12:13:35;11.70;99.90
4759;DHT22;2393;50.560;12.636;2023-10-31T12:16:04;11.70;99.90
4759;DHT22;2393;50.560;12.636;2023-10-31T12:18:34;11.80;99.90
4759;DHT22;2393;50.560;12.636;2023-10-31T12:21:04;12.00;99.90
4759;DHT22;2393;50.560;12.636;2023-10-31T12:23:35;12.10;99.90
4759;DHT22;2393;50.560;12.636;2023-10-31T12:26:03;12.10;99.90
4759;DHT22;2393;50.560;12.636;2023-10-31T12:28:31;12.00;99.90
4759;DHT22;2393;50.560;12.636;2023-10-31T12:31:02;11.90;99.90
4759;DHT22;2393;50.560;12.636;2023-10-31T12:33:30;11.80;99.90
4759;DHT22;2393;50.560;12.636;2023-10-31T12:35:59;11.80;99.90
4759;DHT22;2393;50.560;12.636;2023-10-31T12:38:28;11.80;99.90
4759;DHT22;2393;50.560;12.636;2023-10-31T12:40:58;11.80;99.90
4759;DHT22;2393;50.560;12.636;2023-10-31T12:43:27;11.80;99.90
4759;DHT22;2393;50.560;12.636;2023-10-31T12:45:56;11.80;99.90
4759;DHT22;2393;50.560;12.636;2023-10-31T12:48:24;11.80;99.90
4759;DHT22;2393;50.560;12.636;2023-10-31T12:51:06;11.70;99.90
4759;DHT22;2393;50.560;12.636;2023-10-31T12:53:34;11.70;99.90
4759;DHT22;2393;50.560;12.636;2023-10-31T12:56:04;11.70;99.90
4759;DHT22;2393;50.560;12.636;2023-10-31T12:58:32;11.60;99.90
4759;DHT22;2393;50.560;12.636;2023-10-31T13:01:01;11.60;99.90
4759;DHT22;2393;50.560;12.636;2023-10-31T13:03:29;11.60;99.90
4759;DHT22;2393;50.560;12.636;2023-10-31T13:05:57;11.60;99.90
4759;DHT22;2393;50.560;12.636;2023-10-31T13:08:25;11.60;99.90
4759;DHT22;2393;50.560;12.636;2023-10-31T13:10:56;11.60;99.90
4759;DHT22;2393;50.560;12.636;2023-10-31T13:13:25;11.60;99.90
4759;DHT22;2393;50.560;12.636;2023-10-31T13:15:53;11.60;99.90
4759;DHT22;2393;50.560;12.636;2023-10-31T13:18:22;11.60;99.90
4759;DHT22;2393;50.560;12.636;2023-10-31T13:20:50;11.60;99.90
4759;DHT22;2393;50.560;12.636;2023-10-31T13:23:18;11.50;99.90
4759;DHT22;2393;50.560;12.636;2023-10-31T13:25:46;11.50;99.90
4759;DHT22;2393;50.560;12.636;2023-10-31T13:28:15;11.50;99.90
4759;DHT22;2393;50.560;12.636;2023-10-31T13:30:44;11.50;99.90
4759;DHT22;2393;50.560;12.636;2023-10-31T13:33:14;11.50;99.90
4759;DHT22;2393;50.560;12.636;2023-10-31T13:35:42;11.50;99.90
4759;DHT22;2393;50.560;12.636;2023-10-31T13:38:10;11.40;99.90
4759;DHT22;2393;50.560;12.636;2023-10-31T13:40:38;11.40;99.90
4759;DHT22;2393;50.560;12.636;2023-10-31T13:43:07;11.30;99.90
4759;DHT22;2393;50.560;12.636;2023-10-31T13:45:35;11.30;99.90
4759;DHT22;2393;50.560;12.636;2023-10-31T13:48:05;11.30;99.90
4759;DHT22;2393;50.560;12.636;2023-10-31T13:50:33;11.30;99.90
4759;DHT22;2393;50.560;12.636;2023-10-31T13:53:01;11.30;99.90
4759;DHT22;2393;50.560;12.636;2023-10-31T13:55:31;11.30;99.90
4759;DHT22;2393;50.560;12.636;2023-10-31T13:58:00;11.30;99.90
4759;DHT22;2393;50.560;12.636;2023-10-31T14:00:28;11.40;99.90
4759;DHT22;2393;50.560;12.636;2023-10-31T14:02:56;11.40;99.90
4759;DHT22;2393;50.560;12.636;2023-10-31T14:05:26;11.30;99.90
4759;DHT22;2393;50.560;12.636;2023-10-31T14:07:55;11.30;99.90
4759;DHT22;2393;50.560;12.636;2023-10-31T14:10:24;11.20;99.90
4759;DHT22;2393;50.560;12.636;2023-10-31T14:12:53;11.30;99.90
4759;DHT22;2393;50.560;12.636;2023-10-31T14:15:22;11.20;99.90
4759;DHT22;2393;50.560;12.636;2023-10-31T14:17:50;11.20;99.90
4759;DHT22;2393;50.560;12.636;2023-10-31T14:20:19;11.20;99.90
4759;DHT22;2393;50.560;12.636;2023-10-31T14:22:49;11.20;99.90
4759;DHT22;2393;50.560;12.636;2023-10-31T14:25:17;11.20;99.90
4759;DHT22;2393;50.560;12.636;2023-10-31T14:27:45;11.20;99.90
4759;DHT22;2393;50.560;12.636;2023-10-31T14:30:13;11.10;99.90
4759;DHT22;2393;50.560;12.636;2023-10-31T14:32:41;11.20;99.90
4759;DHT22;2393;50.560;12.636;2023-10-31T14:35:10;11.20;99.90
4759;DHT22;2393;50.560;12.636;2023-10-31T14:37:38;11.20;99.90
4759;DHT22;2393;50.560;12.636;2023-10-31T14:40:08;11.20;99.90
4759;DHT22;2393;50.560;12.636;2023-10-31T14:42:37;11.10;99.90
4759;DHT22;2393;50.560;12.636;2023-10-31T14:45:06;11.10;99.90
4759;DHT22;2393;50.560;12.636;2023-10-31T14:47:34;11.10;99.90
4759;DHT22;2393;50.560;12.636;2023-10-31T14:50:03;11.20;99.90
4759;DHT22;2393;50.560;12.636;2023-10-31T14:52:31;11.20;99.90
4759;DHT22;2393;50.560;12.636;2023-10-31T14:54:59;11.20;99.90
4759;DHT22;2393;50.560;12.636;2023-10-31T14:57:29;11.20;99.90
4759;DHT22;2393;50.560;12.636;2023-10-31T14:59:57;11.20;99.90
4759;DHT22;2393;50.560;12.636;2023-10-31T15:02:26;11.10;99.90
4759;DHT22;2393;50.560;12.636;2023-10-31T15:04:54;11.10;99.90
4759;DHT22;2393;50.560;12.636;2023-10-31T15:07:22;11.10;99.90
4759;DHT22;2393;50.560;12.636;2023-10-31T15:09:50;11.00;99.90
4759;DHT22;2393;50.560;12.636;2023-10-31T15:12:18;11.00;99.90
4759;DHT22;2393;50.560;12.636;2023-10-31T15:14:48;11.00;99.90
4759;DHT22;2393;50.560;12.636;2023-10-31T15:17:17;11.00;99.90
4759;DHT22;2393;50.560;12.636;2023-10-31T15:19:45;10.90;99.90
4759;DHT22;2393;50.560;12.636;2023-10-31T15:22:13;10.80;99.90
4759;DHT22;2393;50.560;12.636;2023-10-31T15:24:41;10.80;99.90
4759;DHT22;2393;50.560;12.636;2023-10-31T15:27:09;10.70;99.90
4759;DHT22;2393;50.560;12.636;2023-10-31T15:29:41;10.70;99.90
4759;DHT22;2393;50.560;12.636;2023-10-31T15:32:11;10.60;99.90
4759;DHT22;2393;50.560;12.636;2023-10-31T15:34:39;10.60;99.90
4759;DHT22;2393;50.560;12.636;2023-10-31T15:37:09;10.50;99.90
4759;DHT22;2393;50.560;12.636;2023-10-31T15:39:38;10.50;99.90
4759;DHT22;2393;50.560;12.636;2023-10-31T15:42:07;10.50;99.90
4759;DHT22;2393;50.560;12.636;2023-10-31T15:44:36;10.50;99.90
4759;DHT22;2393;50.560;12.636;2023-10-31T15:47:05;10.40;99.90
4759;DHT22;2393;50.560;12.636;2023-10-31T15:49:35;10.40;99.90
4759;DHT22;2393;50.560;12.636;2023-10-31T15:52:05;10.30;99.90
4759;DHT22;2393;50.560;12.636;2023-10-31T15:54:33;10.30;99.90
4759;DHT22;2393;50.560;12.636;2023-10-31T15:57:01;10.30;99.90